sensor_id;sensor_type;location;lat;lon;timestamp;pressure;altitude;pressure_sealevel;temperature;humidity
43683;BME280;29285;52.128;21.060;2023-11-18T00:03:51;100400.13;;;3.60;100.00
43683;BME280;29285;52.128;21.060;2023-11-18T00:08:52;100409.07;;;3.61;100.00
43683;BME280;29285;52.128;21.060;2023-11-18T00:13:53;100408.22;;;3.62;100.00
43683;BME280;29285;52.128;21.060;2023-11-18T00:18:54;100408.57;;;3.62;100.00
43683;BME280;29285;52.128;21.060;2023-11-18T00:23:55;100416.79;;;3.61;100.00
43683;BME280;29285;52.128;21.060;2023-11-18T00:28:56;100430.30;;;3.58;100.00
43683;BME280;29285;52.128;21.060;2023-11-18T00:33:57;100430.63;;;3.56;100.00
43683;BME280;29285;52.128;21.060;2023-11-18T00:38:58;100435.98;;;3.58;100.00
43683;BME280;29285;52.128;21.060;2023-11-18T00:44:00;100437.52;;;3.59;100.00
43683;BME280;29285;52.128;21.060;2023-11-18T00:49:01;100439.86;;;3.55;100.00
43683;BME280;29285;52.128;21.060;2023-11-18T00:54:03;100447.42;;;3.55;100.00
43683;BME280;29285;52.128;21.060;2023-11-18T00:59:06;100448.20;;;3.49;100.00
43683;BME280;29285;52.128;21.060;2023-11-18T01:04:07;100456.58;;;3.48;100.00
43683;BME280;29285;52.128;21.060;2023-11-18T01:09:09;100457.92;;;3.46;100.00
43683;BME280;29285;52.128;21.060;2023-11-18T01:14:10;100462.91;;;3.47;100.00
43683;BME280;29285;52.128;21.060;2023-11-18T01:19:12;100458.78;;;3.47;100.00
43683;BME280;29285;52.128;21.060;2023-11-18T01:24:13;100458.11;;;3.48;100.00
43683;BME280;29285;52.128;21.060;2023-11-18T01:29:14;100456.36;;;3.44;100.00
43683;BME280;29285;52.128;21.060;2023-11-18T01:34:15;100455.66;;;3.44;100.00
43683;BME280;29285;52.128;21.060;2023-11-18T01:39:17;100448.95;;;3.42;100.00
43683;BME280;29285;52.128;21.060;2023-11-18T01:44:18;100444.83;;;3.42;100.00
43683;BME280;29285;52.128;21.060;2023-11-18T01:49:26;100446.36;;;3.41;100.00
43683;BME280;29285;52.128;21.060;2023-11-18T01:54:30;100449.43;;;3.40;100.00
43683;BME280;29285;52.128;21.060;2023-11-18T01:59:33;100448.59;;;3.41;100.00
43683;BME280;29285;52.128;21.060;2023-11-18T02:04:34;100444.14;;;3.41;100.00
43683;BME280;29285;52.128;21.060;2023-11-18T02:09:36;100445.73;;;3.34;100.00
43683;BME280;29285;52.128;21.060;2023-11-18T02:14:39;100451.33;;;3.29;100.00
43683;BME280;29285;52.128;21.060;2023-11-18T02:19:40;100459.04;;;3.29;100.00
43683;BME280;29285;52.128;21.060;2023-11-18T02:24:43;100460.89;;;3.26;100.00
43683;BME280;29285;52.128;21.060;2023-11-18T02:29:45;100463.33;;;3.28;100.00
43683;BME280;29285;52.128;21.060;2023-11-18T02:34:59;100469.00;;;3.30;100.00
43683;BME280;29285;52.128;21.060;2023-11-18T02:40:04;100470.98;;;3.36;100.00
43683;BME280;29285;52.128;21.060;2023-11-18T02:45:13;100472.35;;;3.35;100.00
43683;BME280;29285;52.128;21.060;2023-11-18T02:50:17;100470.61;;;3.34;100.00
43683;BME280;29285;52.128;21.060;2023-11-18T02:55:20;100477.00;;;3.37;100.00
43683;BME280;29285;52.128;21.060;2023-11-18T03:00:25;100484.23;;;3.39;100.00
43683;BME280;29285;52.128;21.060;2023-11-18T03:05:26;100488.69;;;3.38;100.00
43683;BME280;29285;52.128;21.060;2023-11-18T03:10:26;100490.09;;;3.40;100.00
43683;BME280;29285;52.128;21.060;2023-11-18T03:15:30;100497.77;;;3.38;100.00
43683;BME280;29285;52.128;21.060;2023-11-18T03:20:33;100496.77;;;3.40;100.00
43683;BME280;29285;52.128;21.060;2023-11-18T03:25:34;100500.21;;;3.41;100.00
43683;BME280;29285;52.128;21.060;2023-11-18T03:30:35;100508.95;;;3.40;100.00
43683;BME280;29285;52.128;21.060;2023-11-18T03:35:37;100513.02;;;3.37;100.00
43683;BME280;29285;52.128;21.060;2023-11-18T03:40:40;100520.96;;;3.30;100.00
43683;BME280;29285;52.128;21.060;2023-11-18T03:45:42;100524.09;;;3.22;100.00
43683;BME280;29285;52.128;21.060;2023-11-18T03:50:43;100528.98;;;3.17;100.00
43683;BME280;29285;52.128;21.060;2023-11-18T03:55:44;100540.12;;;3.17;100.00
43683;BME280;29285;52.128;21.060;2023-11-18T04:00:45;100542.52;;;3.17;100.00
43683;BME280;29285;52.128;21.060;2023-11-18T04:05:46;100540.98;;;3.18;100.00
43683;BME280;29285;52.128;21.060;2023-11-18T04:10:48;100542.11;;;3.23;100.00
43683;BME280;29285;52.128;21.060;2023-11-18T04:15:49;100543.61;;;3.20;100.00
43683;BME280;29285;52.128;21.060;2023-11-18T04:20:50;100543.22;;;3.18;100.00
43683;BME280;29285;52.128;21.060;2023-11-18T04:25:51;100550.95;;;3.20;100.00
43683;BME280;29285;52.128;21.060;2023-11-18T04:30:52;100552.08;;;3.15;100.00
43683;BME280;29285;52.128;21.060;2023-11-18T04:35:53;100553.77;;;3.14;100.00
43683;BME280;29285;52.128;21.060;2023-11-18T04:40:55;100558.72;;;3.12;100.00
43683;BME280;29285;52.128;21.060;2023-11-18T04:45:56;100560.48;;;3.15;100.00
43683;BME280;29285;52.128;21.060;2023-11-18T04:50:57;100563.80;;;3.19;100.00
43683;BME280;29285;52.128;21.060;2023-11-18T04:55:58;100559.89;;;3.20;100.00
43683;BME280;29285;52.128;21.060;2023-11-18T05:00:58;100561.09;;;3.20;100.00
43683;BME280;29285;52.128;21.060;2023-11-18T05:06:00;100571.65;;;3.16;100.00
43683;BME280;29285;52.128;21.060;2023-11-18T05:11:01;100579.77;;;3.10;100.00
43683;BME280;29285;52.128;21.060;2023-11-18T05:16:02;100582.60;;;3.05;100.00
43683;BME280;29285;52.128;21.060;2023-11-18T05:21:04;100581.09;;;3.08;100.00
43683;BME280;29285;52.128;21.060;2023-11-18T05:26:06;100589.27;;;3.13;100.00
43683;BME280;29285;52.128;21.060;2023-11-18T05:31:07;100591.03;;;3.16;100.00
43683;BME280;29285;52.128;21.060;2023-11-18T05:36:09;100595.98;;;3.15;100.00
43683;BME280;29285;52.128;21.060;2023-11-18T05:41:12;100603.15;;;3.13;100.00
43683;BME280;29285;52.128;21.060;2023-11-18T05:46:17;100611.89;;;3.04;100.00
43683;BME280;29285;52.128;21.060;2023-11-18T05:51:25;100624.06;;;3.04;100.00
43683;BME280;29285;52.128;21.060;2023-11-18T05:56:27;100628.89;;;3.05;100.00
43683;BME280;29285;52.128;21.060;2023-11-18T06:01:29;100642.42;;;3.05;100.00
43683;BME280;29285;52.128;21.060;2023-11-18T06:06:30;100648.98;;;3.07;100.00
43683;BME280;29285;52.128;21.060;2023-11-18T06:11:32;100656.44;;;3.12;100.00
43683;BME280;29285;52.128;21.060;2023-11-18T06:16:33;100654.40;;;3.12;100.00
43683;BME280;29285;52.128;21.060;2023-11-18T06:21:36;100658.53;;;3.12;100.00
43683;BME280;29285;52.128;21.060;2023-11-18T06:26:37;100664.52;;;3.12;100.00
43683;BME280;29285;52.128;21.060;2023-11-18T06:31:39;100675.52;;;3.14;100.00
43683;BME280;29285;52.128;21.060;2023-11-18T06:36:40;100693.11;;;3.11;100.00
43683;BME280;29285;52.128;21.060;2023-11-18T06:41:41;100697.48;;;3.14;100.00
43683;BME280;29285;52.128;21.060;2023-11-18T06:46:49;100695.94;;;3.15;100.00
43683;BME280;29285;52.128;21.060;2023-11-18T06:51:51;100701.32;;;3.18;100.00
43683;BME280;29285;52.128;21.060;2023-11-18T06:56:53;100707.13;;;3.17;100.00
43683;BME280;29285;52.128;21.060;2023-11-18T07:01:54;100716.66;;;3.14;100.00
43683;BME280;29285;52.128;21.060;2023-11-18T07:06:55;100727.64;;;3.14;100.00
43683;BME280;29285;52.128;21.060;2023-11-18T07:11:57;100731.86;;;3.19;100.00
43683;BME280;29285;52.128;21.060;2023-11-18T07:16:57;100732.91;;;3.20;100.00
43683;BME280;29285;52.128;21.060;2023-11-18T07:21:58;100740.08;;;3.18;100.00
43683;BME280;29285;52.128;21.060;2023-11-18T07:26:59;100751.91;;;3.18;100.00
43683;BME280;29285;52.128;21.060;2023-11-18T07:32:00;100755.31;;;3.09;100.00
43683;BME280;29285;52.128;21.060;2023-11-18T07:37:03;100758.73;;;3.08;100.00
43683;BME280;29285;52.128;21.060;2023-11-18T07:47:18;100761.04;;;3.12;100.00
43683;BME280;29285;52.128;21.060;2023-11-18T07:52:20;100757.91;;;3.10;100.00
43683;BME280;29285;52.128;21.060;2023-11-18T07:57:22;100760.42;;;3.15;100.00
43683;BME280;29285;52.128;21.060;2023-11-18T08:02:24;100774.11;;;3.14;100.00
43683;BME280;29285;52.128;21.060;2023-11-18T08:07:25;100787.71;;;3.09;100.00
43683;BME280;29285;52.128;21.060;2023-11-18T08:12:26;100788.62;;;3.03;100.00
43683;BME280;29285;52.128;21.060;2023-11-18T08:17:27;100792.19;;;3.01;100.00
43683;BME280;29285;52.128;21.060;2023-11-18T08:22:28;100802.14;;;3.02;100.00
43683;BME280;29285;52.128;21.060;2023-11-18T08:27:30;100810.85;;;3.40;100.00
43683;BME280;29285;52.128;21.060;2023-11-18T08:32:31;100810.23;;;3.69;100.00
43683;BME280;29285;52.128;21.060;2023-11-18T08:37:33;100813.84;;;3.61;100.00
43683;BME280;29285;52.128;21.060;2023-11-18T08:42:35;100827.03;;;3.51;100.00
43683;BME280;29285;52.128;21.060;2023-11-18T08:47:37;100835.44;;;3.51;100.00
43683;BME280;29285;52.128;21.060;2023-11-18T08:52:39;100844.05;;;3.44;100.00
43683;BME280;29285;52.128;21.060;2023-11-18T08:57:47;100845.48;;;3.39;100.00
43683;BME280;29285;52.128;21.060;2023-11-18T09:02:53;100846.88;;;3.31;100.00
43683;BME280;29285;52.128;21.060;2023-11-18T09:07:54;100845.22;;;3.27;100.00
43683;BME280;29285;52.128;21.060;2023-11-18T09:12:58;100849.17;;;3.20;100.00
43683;BME280;29285;52.128;21.060;2023-11-18T09:17:59;100848.45;;;3.25;100.00
43683;BME280;29285;52.128;21.060;2023-11-18T09:23:00;100849.61;;;3.32;100.00
43683;BME280;29285;52.128;21.060;2023-11-18T09:28:02;100858.79;;;3.28;100.00
43683;BME280;29285;52.128;21.060;2023-11-18T09:33:04;100861.30;;;3.26;100.00
43683;BME280;29285;52.128;21.060;2023-11-18T09:38:06;100864.95;;;3.28;100.00
43683;BME280;29285;52.128;21.060;2023-11-18T09:43:07;100871.83;;;3.28;100.00
43683;BME280;29285;52.128;21.060;2023-11-18T09:48:13;100868.22;;;3.27;100.00
43683;BME280;29285;52.128;21.060;2023-11-18T09:53:18;100868.22;;;3.28;100.00
43683;BME280;29285;52.128;21.060;2023-11-18T09:58:20;100866.71;;;3.23;100.00
43683;BME280;29285;52.128;21.060;2023-11-18T10:03:24;100862.54;;;3.27;100.00
43683;BME280;29285;52.128;21.060;2023-11-18T10:08:25;100871.99;;;3.28;100.00
43683;BME280;29285;52.128;21.060;2023-11-18T10:13:26;100882.33;;;3.29;100.00
43683;BME280;29285;52.128;21.060;2023-11-18T10:18:28;100882.16;;;3.30;100.00
43683;BME280;29285;52.128;21.060;2023-11-18T10:23:30;100885.79;;;3.30;100.00
43683;BME280;29285;52.128;21.060;2023-11-18T10:28:35;100883.79;;;3.26;100.00
43683;BME280;29285;52.128;21.060;2023-11-18T10:33:39;100889.07;;;3.32;100.00
43683;BME280;29285;52.128;21.060;2023-11-18T10:38:42;100889.83;;;3.35;100.00
43683;BME280;29285;52.128;21.060;2023-11-18T10:44:05;100886.23;;;3.35;100.00
43683;BME280;29285;52.128;21.060;2023-11-18T10:49:06;100884.23;;;3.23;100.00
43683;BME280;29285;52.128;21.060;2023-11-18T10:54:10;100885.80;;;3.24;100.00
43683;BME280;29285;52.128;21.060;2023-11-18T10:59:18;100888.20;;;3.24;100.00
43683;BME280;29285;52.128;21.060;2023-11-18T11:04:19;100889.33;;;3.21;100.00
43683;BME280;29285;52.128;21.060;2023-11-18T11:09:24;100886.69;;;3.18;100.00
43683;BME280;29285;52.128;21.060;2023-11-18T11:14:32;100892.58;;;3.21;100.00
43683;BME280;29285;52.128;21.060;2023-11-18T11:19:50;100906.27;;;3.19;100.00
43683;BME280;29285;52.128;21.060;2023-11-18T11:30:22;100908.91;;;3.23;100.00
43683;BME280;29285;52.128;21.060;2023-11-18T11:35:30;100911.46;;;3.29;100.00
43683;BME280;29285;52.128;21.060;2023-11-18T11:40:32;100915.56;;;3.35;100.00
43683;BME280;29285;52.128;21.060;2023-11-18T11:45:36;100917.66;;;3.38;100.00
43683;BME280;29285;52.128;21.060;2023-11-18T11:50:45;100924.21;;;3.38;100.00
43683;BME280;29285;52.128;21.060;2023-11-18T11:55:49;100932.57;;;3.44;100.00
43683;BME280;29285;52.128;21.060;2023-11-18T12:00:52;100940.02;;;3.47;100.00
43683;BME280;29285;52.128;21.060;2023-11-18T12:05:55;100941.73;;;3.48;100.00
43683;BME280;29285;52.128;21.060;2023-11-18T12:10:57;100943.73;;;3.52;100.00
43683;BME280;29285;52.128;21.060;2023-11-18T12:15:58;100945.43;;;3.52;100.00
43683;BME280;29285;52.128;21.060;2023-11-18T12:20:59;100950.79;;;3.54;100.00
43683;BME280;29285;52.128;21.060;2023-11-18T12:26:39;100957.91;;;3.58;100.00
43683;BME280;29285;52.128;21.060;2023-11-18T12:31:40;100964.46;;;3.44;100.00
43683;BME280;29285;52.128;21.060;2023-11-18T12:37:03;100973.67;;;3.41;100.00
43683;BME280;29285;52.128;21.060;2023-11-18T12:42:26;100978.70;;;3.36;100.00
43683;BME280;29285;52.128;21.060;2023-11-18T12:47:37;100989.54;;;3.44;100.00
43683;BME280;29285;52.128;21.060;2023-11-18T12:52:41;100991.81;;;3.54;100.00
43683;BME280;29285;52.128;21.060;2023-11-18T12:57:48;100999.48;;;3.59;100.00
43683;BME280;29285;52.128;21.060;2023-11-18T13:02:49;101009.16;;;3.55;100.00
43683;BME280;29285;52.128;21.060;2023-11-18T13:07:50;101016.80;;;3.44;100.00
43683;BME280;29285;52.128;21.060;2023-11-18T13:12:51;101029.55;;;3.32;100.00
43683;BME280;29285;52.128;21.060;2023-11-18T13:18:03;101035.34;;;3.17;100.00
43683;BME280;29285;52.128;21.060;2023-11-18T13:23:10;101044.94;;;3.09;100.00
43683;BME280;29285;52.128;21.060;2023-11-18T13:28:11;101050.29;;;3.11;100.00
43683;BME280;29285;52.128;21.060;2023-11-18T13:33:14;101057.29;;;3.10;100.00
43683;BME280;29285;52.128;21.060;2023-11-18T13:38:15;101062.34;;;3.07;100.00
43683;BME280;29285;52.128;21.060;2023-11-18T13:43:16;101070.39;;;2.93;100.00
43683;BME280;29285;52.128;21.060;2023-11-18T13:48:17;101072.59;;;2.86;100.00
43683;BME280;29285;52.128;21.060;2023-11-18T13:53:19;101078.75;;;2.86;100.00
43683;BME280;29285;52.128;21.060;2023-11-18T13:58:20;101083.17;;;2.84;100.00
43683;BME280;29285;52.128;21.060;2023-11-18T14:03:21;101090.52;;;2.84;100.00
43683;BME280;29285;52.128;21.060;2023-11-18T14:08:24;101091.98;;;2.80;100.00
43683;BME280;29285;52.128;21.060;2023-11-18T14:13:25;101089.90;;;2.73;100.00
43683;BME280;29285;52.128;21.060;2023-11-18T14:18:29;101097.38;;;2.71;100.00
43683;BME280;29285;52.128;21.060;2023-11-18T14:23:30;101101.88;;;2.73;100.00
43683;BME280;29285;52.128;21.060;2023-11-18T14:28:32;101106.91;;;2.69;100.00
43683;BME280;29285;52.128;21.060;2023-11-18T14:33:35;101107.94;;;2.63;100.00
43683;BME280;29285;52.128;21.060;2023-11-18T14:38:36;101107.77;;;2.57;100.00
43683;BME280;29285;52.128;21.060;2023-11-18T14:43:37;101110.66;;;2.50;100.00
43683;BME280;29285;52.128;21.060;2023-11-18T14:48:38;101110.71;;;2.46;100.00
43683;BME280;29285;52.128;21.060;2023-11-18T14:53:39;101112.19;;;2.44;100.00
43683;BME280;29285;52.128;21.060;2023-11-18T14:58:40;101114.13;;;2.34;100.00
43683;BME280;29285;52.128;21.060;2023-11-18T15:03:41;101115.45;;;2.33;100.00
43683;BME280;29285;52.128;21.060;2023-11-18T15:08:42;101120.34;;;2.30;100.00
43683;BME280;29285;52.128;21.060;2023-11-18T15:13:44;101116.70;;;2.29;100.00
43683;BME280;29285;52.128;21.060;2023-11-18T15:18:45;101108.15;;;2.41;100.00
43683;BME280;29285;52.128;21.060;2023-11-18T15:23:50;101109.20;;;2.53;100.00
43683;BME280;29285;52.128;21.060;2023-11-18T15:28:51;101116.72;;;2.53;100.00
43683;BME280;29285;52.128;21.060;2023-11-18T15:33:53;101122.33;;;2.57;100.00
43683;BME280;29285;52.128;21.060;2023-11-18T15:38:54;101122.52;;;2.57;100.00
43683;BME280;29285;52.128;21.060;2023-11-18T15:43:55;101119.96;;;2.52;100.00
43683;BME280;29285;52.128;21.060;2023-11-18T15:48:56;101119.33;;;2.48;100.00
43683;BME280;29285;52.128;21.060;2023-11-18T15:53:57;101123.73;;;2.52;100.00
43683;BME280;29285;52.128;21.060;2023-11-18T15:58:58;101129.88;;;2.57;100.00
43683;BME280;29285;52.128;21.060;2023-11-18T16:03:59;101135.90;;;2.58;100.00
43683;BME280;29285;52.128;21.060;2023-11-18T16:09:00;101146.02;;;2.59;100.00
43683;BME280;29285;52.128;21.060;2023-11-18T16:14:02;101155.81;;;2.60;100.00
43683;BME280;29285;52.128;21.060;2023-11-18T16:19:03;101154.05;;;2.64;100.00
43683;BME280;29285;52.128;21.060;2023-11-18T16:24:05;101158.98;;;2.68;100.00
43683;BME280;29285;52.128;21.060;2023-11-18T16:29:06;101157.38;;;2.72;100.00
43683;BME280;29285;52.128;21.060;2023-11-18T16:34:07;101162.34;;;2.78;100.00
43683;BME280;29285;52.128;21.060;2023-11-18T16:39:08;101168.25;;;2.81;100.00
43683;BME280;29285;52.128;21.060;2023-11-18T16:44:10;101165.95;;;2.72;100.00
43683;BME280;29285;52.128;21.060;2023-11-18T16:49:12;101166.70;;;2.69;100.00
43683;BME280;29285;52.128;21.060;2023-11-18T16:54:13;101169.11;;;2.74;100.00
43683;BME280;29285;52.128;21.060;2023-11-18T16:59:14;101172.45;;;2.66;100.00
43683;BME280;29285;52.128;21.060;2023-11-18T17:04:16;101177.38;;;2.59;100.00
43683;BME280;29285;52.128;21.060;2023-11-18T17:09:17;101185.59;;;2.58;100.00
43683;BME280;29285;52.128;21.060;2023-11-18T17:14:18;101189.14;;;2.57;100.00
43683;BME280;29285;52.128;21.060;2023-11-18T17:19:18;101182.81;;;2.51;100.00
43683;BME280;29285;52.128;21.060;2023-11-18T17:24:20;101181.75;;;2.50;100.00
43683;BME280;29285;52.128;21.060;2023-11-18T17:29:21;101178.02;;;2.57;100.00
43683;BME280;29285;52.128;21.060;2023-11-18T17:34:22;101174.88;;;2.61;100.00
43683;BME280;29285;52.128;21.060;2023-11-18T17:39:23;101176.95;;;2.68;100.00
43683;BME280;29285;52.128;21.060;2023-11-18T17:44:24;101158.34;;;2.70;100.00
43683;BME280;29285;52.128;21.060;2023-11-18T17:49:26;101159.44;;;2.72;100.00
43683;BME280;29285;52.128;21.060;2023-11-18T17:54:26;101156.91;;;2.67;100.00
43683;BME280;29285;52.128;21.060;2023-11-18T17:59:28;101157.81;;;2.63;100.00
43683;BME280;29285;52.128;21.060;2023-11-18T18:04:29;101143.38;;;2.62;100.00
43683;BME280;29285;52.128;21.060;2023-11-18T18:09:30;101143.54;;;2.61;100.00
43683;BME280;29285;52.128;21.060;2023-11-18T18:14:31;101143.23;;;2.62;100.00
43683;BME280;29285;52.128;21.060;2023-11-18T18:19:32;101149.55;;;2.68;100.00
43683;BME280;29285;52.128;21.060;2023-11-18T18:24:33;101156.88;;;2.67;100.00
43683;BME280;29285;52.128;21.060;2023-11-18T18:29:34;101164.34;;;2.64;100.00
43683;BME280;29285;52.128;21.060;2023-11-18T18:34:36;101154.31;;;2.61;100.00
43683;BME280;29285;52.128;21.060;2023-11-18T18:39:37;101144.84;;;2.59;100.00
43683;BME280;29285;52.128;21.060;2023-11-18T18:44:38;101142.61;;;2.53;100.00
43683;BME280;29285;52.128;21.060;2023-11-18T18:49:39;101144.92;;;2.50;100.00
43683;BME280;29285;52.128;21.060;2023-11-18T18:54:40;101149.20;;;2.56;100.00
43683;BME280;29285;52.128;21.060;2023-11-18T18:59:41;101148.56;;;2.58;100.00
43683;BME280;29285;52.128;21.060;2023-11-18T19:04:43;101157.85;;;2.59;100.00
43683;BME280;29285;52.128;21.060;2023-11-18T19:09:44;101163.23;;;2.62;100.00
43683;BME280;29285;52.128;21.060;2023-11-18T19:14:46;101165.20;;;2.58;100.00
43683;BME280;29285;52.128;21.060;2023-11-18T19:19:47;101154.39;;;2.57;100.00
43683;BME280;29285;52.128;21.060;2023-11-18T19:24:49;101153.05;;;2.64;100.00
43683;BME280;29285;52.128;21.060;2023-11-18T19:29:50;101155.86;;;2.67;100.00
43683;BME280;29285;52.128;21.060;2023-11-18T19:34:51;101169.66;;;2.64;100.00
43683;BME280;29285;52.128;21.060;2023-11-18T19:39:54;101174.77;;;2.63;100.00
43683;BME280;29285;52.128;21.060;2023-11-18T19:44:55;101162.56;;;2.62;100.00
43683;BME280;29285;52.128;21.060;2023-11-18T19:49:56;101152.33;;;2.63;100.00
43683;BME280;29285;52.128;21.060;2023-11-18T19:54:58;101149.02;;;2.62;100.00
43683;BME280;29285;52.128;21.060;2023-11-18T19:59:59;101148.80;;;2.54;100.00
43683;BME280;29285;52.128;21.060;2023-11-18T20:05:00;101151.42;;;2.56;100.00
43683;BME280;29285;52.128;21.060;2023-11-18T20:10:01;101139.73;;;2.54;100.00
43683;BME280;29285;52.128;21.060;2023-11-18T20:15:02;101132.09;;;2.50;100.00
43683;BME280;29285;52.128;21.060;2023-11-18T20:20:05;101136.20;;;2.51;100.00
43683;BME280;29285;52.128;21.060;2023-11-18T20:25:09;101140.27;;;2.49;100.00
43683;BME280;29285;52.128;21.060;2023-11-18T20:30:11;101129.23;;;2.53;100.00
43683;BME280;29285;52.128;21.060;2023-11-18T20:35:13;101123.38;;;2.58;100.00
43683;BME280;29285;52.128;21.060;2023-11-18T20:40:14;101111.39;;;2.63;100.00
43683;BME280;29285;52.128;21.060;2023-11-18T20:45:17;101096.55;;;2.73;100.00
43683;BME280;29285;52.128;21.060;2023-11-18T20:50:18;101091.80;;;2.74;100.00
43683;BME280;29285;52.128;21.060;2023-11-18T20:55:19;101087.05;;;2.75;100.00
43683;BME280;29285;52.128;21.060;2023-11-18T21:00:20;101077.48;;;2.71;100.00
43683;BME280;29285;52.128;21.060;2023-11-18T21:05:21;101080.02;;;2.69;100.00
43683;BME280;29285;52.128;21.060;2023-11-18T21:10:22;101067.45;;;2.61;100.00
43683;BME280;29285;52.128;21.060;2023-11-18T21:15:23;101064.53;;;2.55;100.00
43683;BME280;29285;52.128;21.060;2023-11-18T21:20:26;101066.01;;;2.53;100.00
43683;BME280;29285;52.128;21.060;2023-11-18T21:25:27;101075.08;;;2.46;100.00
43683;BME280;29285;52.128;21.060;2023-11-18T21:30:28;101069.97;;;2.41;100.00
43683;BME280;29285;52.128;21.060;2023-11-18T21:35:29;101069.58;;;2.46;100.00
43683;BME280;29285;52.128;21.060;2023-11-18T21:40:30;101064.27;;;2.51;100.00
43683;BME280;29285;52.128;21.060;2023-11-18T21:45:31;101055.20;;;2.58;100.00
43683;BME280;29285;52.128;21.060;2023-11-18T21:50:32;101061.33;;;2.57;100.00
43683;BME280;29285;52.128;21.060;2023-11-18T21:55:34;101058.19;;;2.55;100.00
43683;BME280;29285;52.128;21.060;2023-11-18T22:00:35;101049.75;;;2.53;100.00
43683;BME280;29285;52.128;21.060;2023-11-18T22:05:35;101052.91;;;2.56;100.00
43683;BME280;29285;52.128;21.060;2023-11-18T22:10:36;101053.98;;;2.51;100.00
43683;BME280;29285;52.128;21.060;2023-11-18T22:15:37;101054.64;;;2.50;100.00
43683;BME280;29285;52.128;21.060;2023-11-18T22:20:38;101068.33;;;2.87;100.00
43683;BME280;29285;52.128;21.060;2023-11-18T22:25:40;101082.41;;;3.34;100.00
43683;BME280;29285;52.128;21.060;2023-11-18T22:30:44;101088.16;;;3.50;100.00
43683;BME280;29285;52.128;21.060;2023-11-18T22:35:46;101105.89;;;3.39;100.00
43683;BME280;29285;52.128;21.060;2023-11-18T22:40:48;101111.63;;;3.35;100.00
43683;BME280;29285;52.128;21.060;2023-11-18T22:45:49;101101.27;;;3.54;100.00
43683;BME280;29285;52.128;21.060;2023-11-18T22:50:52;101095.75;;;3.52;100.00
43683;BME280;29285;52.128;21.060;2023-11-18T22:55:53;101097.23;;;3.42;100.00
43683;BME280;29285;52.128;21.060;2023-11-18T23:00:54;101094.73;;;3.26;100.00
43683;BME280;29285;52.128;21.060;2023-11-18T23:05:56;101076.80;;;3.15;100.00
43683;BME280;29285;52.128;21.060;2023-11-18T23:11:00;101064.20;;;3.06;100.00
43683;BME280;29285;52.128;21.060;2023-11-18T23:16:01;101035.45;;;3.01;100.00
43683;BME280;29285;52.128;21.060;2023-11-18T23:21:04;100995.95;;;2.99;100.00
43683;BME280;29285;52.128;21.060;2023-11-18T23:26:05;100986.52;;;2.98;100.00
43683;BME280;29285;52.128;21.060;2023-11-18T23:31:06;100983.88;;;2.95;100.00
43683;BME280;29285;52.128;21.060;2023-11-18T23:36:14;100986.52;;;2.92;100.00
43683;BME280;29285;52.128;21.060;2023-11-18T23:41:15;100980.08;;;2.88;100.00
43683;BME280;29285;52.128;21.060;2023-11-18T23:46:16;100971.27;;;2.78;100.00
43683;BME280;29285;52.128;21.060;2023-11-18T23:51:17;100977.12;;;2.73;100.00
43683;BME280;29285;52.128;21.060;2023-11-18T23:56:19;100984.55;;;2.75;100.00
